sensor_id;sensor_type;location;lat;lon;timestamp;P1;durP1;ratioP1;P2;durP2;ratioP2
26435;SDS011;15351;52.408;16.826;2024-01-15T00:02:24;14.90;;;11.00;;
26435;SDS011;15351;52.408;16.826;2024-01-15T00:04:51;14.20;;;10.30;;
26435;SDS011;15351;52.408;16.826;2024-01-15T00:07:18;13.40;;;10.30;;
26435;SDS011;15351;52.408;16.826;2024-01-15T00:09:44;14.50;;;10.30;;
26435;SDS011;15351;52.408;16.826;2024-01-15T00:12:10;12.30;;;10.10;;
26435;SDS011;15351;52.408;16.826;2024-01-15T00:14:36;12.70;;;10.20;;
26435;SDS011;15351;52.408;16.826;2024-01-15T00:17:03;14.10;;;10.20;;
26435;SDS011;15351;52.408;16.826;2024-01-15T00:19:30;14.40;;;10.30;;
26435;SDS011;15351;52.408;16.826;2024-01-15T00:21:57;13.50;;;9.80;;
26435;SDS011;15351;52.408;16.826;2024-01-15T00:24:24;13.30;;;9.70;;
26435;SDS011;15351;52.408;16.826;2024-01-15T00:26:50;11.90;;;9.60;;
26435;SDS011;15351;52.408;16.826;2024-01-15T00:29:17;12.10;;;10.10;;
26435;SDS011;15351;52.408;16.826;2024-01-15T00:31:43;12.80;;;10.50;;
26435;SDS011;15351;52.408;16.826;2024-01-15T00:34:09;14.10;;;10.60;;
26435;SDS011;15351;52.408;16.826;2024-01-15T00:36:36;15.40;;;10.50;;
26435;SDS011;15351;52.408;16.826;2024-01-15T00:39:02;12.50;;;9.60;;
26435;SDS011;15351;52.408;16.826;2024-01-15T00:41:31;14.90;;;10.30;;
26435;SDS011;15351;52.408;16.826;2024-01-15T00:43:58;12.60;;;10.40;;
26435;SDS011;15351;52.408;16.826;2024-01-15T00:46:24;12.80;;;10.40;;
26435;SDS011;15351;52.408;16.826;2024-01-15T00:48:50;14.70;;;10.60;;
26435;SDS011;15351;52.408;16.826;2024-01-15T00:51:17;16.00;;;10.70;;
26435;SDS011;15351;52.408;16.826;2024-01-15T00:53:43;15.40;;;10.70;;
26435;SDS011;15351;52.408;16.826;2024-01-15T00:56:09;15.20;;;10.90;;
26435;SDS011;15351;52.408;16.826;2024-01-15T00:58:36;15.70;;;11.20;;
26435;SDS011;15351;52.408;16.826;2024-01-15T01:01:03;14.50;;;11.30;;
26435;SDS011;15351;52.408;16.826;2024-01-15T01:03:29;13.80;;;11.20;;
26435;SDS011;15351;52.408;16.826;2024-01-15T01:05:58;15.60;;;11.00;;
26435;SDS011;15351;52.408;16.826;2024-01-15T01:08:25;14.80;;;10.80;;
26435;SDS011;15351;52.408;16.826;2024-01-15T01:10:51;16.00;;;10.90;;
26435;SDS011;15351;52.408;16.826;2024-01-15T01:13:18;15.80;;;10.80;;
26435;SDS011;15351;52.408;16.826;2024-01-15T01:15:45;14.10;;;11.40;;
26435;SDS011;15351;52.408;16.826;2024-01-15T01:18:11;14.80;;;11.90;;
26435;SDS011;15351;52.408;16.826;2024-01-15T01:20:37;16.60;;;11.80;;
26435;SDS011;15351;52.408;16.826;2024-01-15T01:23:04;16.30;;;11.60;;
26435;SDS011;15351;52.408;16.826;2024-01-15T01:25:30;15.50;;;11.10;;
26435;SDS011;15351;52.408;16.826;2024-01-15T01:27:57;15.90;;;11.40;;
26435;SDS011;15351;52.408;16.826;2024-01-15T01:30:23;15.70;;;10.80;;
26435;SDS011;15351;52.408;16.826;2024-01-15T01:32:49;14.30;;;11.10;;
26435;SDS011;15351;52.408;16.826;2024-01-15T01:35:15;14.30;;;11.80;;
26435;SDS011;15351;52.408;16.826;2024-01-15T01:37:41;16.50;;;11.60;;
26435;SDS011;15351;52.408;16.826;2024-01-15T01:40:08;15.90;;;11.40;;
26435;SDS011;15351;52.408;16.826;2024-01-15T01:42:34;15.20;;;11.00;;
26435;SDS011;15351;52.408;16.826;2024-01-15T01:45:00;14.40;;;10.40;;
26435;SDS011;15351;52.408;16.826;2024-01-15T01:47:27;15.00;;;10.60;;
26435;SDS011;15351;52.408;16.826;2024-01-15T01:49:54;13.30;;;10.50;;
26435;SDS011;15351;52.408;16.826;2024-01-15T01:52:20;14.40;;;11.70;;
26435;SDS011;15351;52.408;16.826;2024-01-15T01:54:47;15.70;;;10.80;;
26435;SDS011;15351;52.408;16.826;2024-01-15T01:57:14;14.20;;;10.50;;
26435;SDS011;15351;52.408;16.826;2024-01-15T01:59:42;13.50;;;10.20;;
26435;SDS011;15351;52.408;16.826;2024-01-15T02:02:08;14.30;;;10.10;;
26435;SDS011;15351;52.408;16.826;2024-01-15T02:04:35;13.50;;;10.50;;
26435;SDS011;15351;52.408;16.826;2024-01-15T02:07:02;13.40;;;10.70;;
26435;SDS011;15351;52.408;16.826;2024-01-15T02:09:29;14.20;;;10.40;;
26435;SDS011;15351;52.408;16.826;2024-01-15T02:11:55;15.20;;;10.60;;
26435;SDS011;15351;52.408;16.826;2024-01-15T02:14:22;15.70;;;10.50;;
26435;SDS011;15351;52.408;16.826;2024-01-15T02:16:49;15.00;;;10.40;;
26435;SDS011;15351;52.408;16.826;2024-01-15T02:19:15;14.00;;;10.10;;
26435;SDS011;15351;52.408;16.826;2024-01-15T02:21:43;12.30;;;10.10;;
26435;SDS011;15351;52.408;16.826;2024-01-15T02:24:09;13.80;;;10.20;;
26435;SDS011;15351;52.408;16.826;2024-01-15T02:26:35;14.80;;;10.20;;
26435;SDS011;15351;52.408;16.826;2024-01-15T02:29:07;14.50;;;10.30;;
26435;SDS011;15351;52.408;16.826;2024-01-15T02:31:38;14.40;;;10.20;;
26435;SDS011;15351;52.408;16.826;2024-01-15T02:34:04;13.80;;;9.90;;
26435;SDS011;15351;52.408;16.826;2024-01-15T02:36:31;12.80;;;10.30;;
26435;SDS011;15351;52.408;16.826;2024-01-15T02:38:58;12.30;;;10.10;;
26435;SDS011;15351;52.408;16.826;2024-01-15T02:41:24;15.50;;;10.50;;
26435;SDS011;15351;52.408;16.826;2024-01-15T02:43:51;15.00;;;10.60;;
26435;SDS011;15351;52.408;16.826;2024-01-15T02:46:17;14.70;;;10.30;;
26435;SDS011;15351;52.408;16.826;2024-01-15T02:48:46;16.30;;;10.60;;
26435;SDS011;15351;52.408;16.826;2024-01-15T02:51:13;12.90;;;9.40;;
26435;SDS011;15351;52.408;16.826;2024-01-15T02:53:40;13.20;;;10.50;;
26435;SDS011;15351;52.408;16.826;2024-01-15T02:56:07;14.10;;;11.10;;
26435;SDS011;15351;52.408;16.826;2024-01-15T02:58:33;14.30;;;10.60;;
26435;SDS011;15351;52.408;16.826;2024-01-15T03:01:01;15.10;;;10.60;;
26435;SDS011;15351;52.408;16.826;2024-01-15T03:03:27;14.50;;;10.20;;
26435;SDS011;15351;52.408;16.826;2024-01-15T03:05:54;13.50;;;9.70;;
26435;SDS011;15351;52.408;16.826;2024-01-15T03:08:21;12.20;;;9.90;;
26435;SDS011;15351;52.408;16.826;2024-01-15T03:10:48;13.00;;;10.60;;
26435;SDS011;15351;52.408;16.826;2024-01-15T03:13:15;15.50;;;10.50;;
26435;SDS011;15351;52.408;16.826;2024-01-15T03:15:41;15.80;;;10.50;;
26435;SDS011;15351;52.408;16.826;2024-01-15T03:18:07;14.20;;;9.80;;
26435;SDS011;15351;52.408;16.826;2024-01-15T03:20:34;14.00;;;10.00;;
26435;SDS011;15351;52.408;16.826;2024-01-15T03:23:00;13.10;;;10.20;;
26435;SDS011;15351;52.408;16.826;2024-01-15T03:25:26;13.70;;;10.90;;
26435;SDS011;15351;52.408;16.826;2024-01-15T03:27:52;14.60;;;10.70;;
26435;SDS011;15351;52.408;16.826;2024-01-15T03:30:19;16.60;;;10.70;;
26435;SDS011;15351;52.408;16.826;2024-01-15T03:32:45;14.80;;;10.10;;
26435;SDS011;15351;52.408;16.826;2024-01-15T03:35:13;14.60;;;10.10;;
26435;SDS011;15351;52.408;16.826;2024-01-15T03:37:39;13.40;;;9.50;;
26435;SDS011;15351;52.408;16.826;2024-01-15T03:40:06;12.90;;;9.70;;
26435;SDS011;15351;52.408;16.826;2024-01-15T03:42:35;12.60;;;10.20;;
26435;SDS011;15351;52.408;16.826;2024-01-15T03:45:01;14.30;;;9.90;;
26435;SDS011;15351;52.408;16.826;2024-01-15T03:47:30;14.80;;;10.00;;
26435;SDS011;15351;52.408;16.826;2024-01-15T03:49:57;13.30;;;9.30;;
26435;SDS011;15351;52.408;16.826;2024-01-15T03:52:24;12.60;;;9.00;;
26435;SDS011;15351;52.408;16.826;2024-01-15T03:54:50;12.40;;;8.90;;
26435;SDS011;15351;52.408;16.826;2024-01-15T03:57:17;11.70;;;9.20;;
26435;SDS011;15351;52.408;16.826;2024-01-15T03:59:44;11.00;;;9.20;;
26435;SDS011;15351;52.408;16.826;2024-01-15T04:02:13;16.70;;;10.40;;
26435;SDS011;15351;52.408;16.826;2024-01-15T04:04:41;13.50;;;9.50;;
26435;SDS011;15351;52.408;16.826;2024-01-15T04:07:08;16.10;;;9.70;;
26435;SDS011;15351;52.408;16.826;2024-01-15T04:09:36;12.10;;;8.70;;
26435;SDS011;15351;52.408;16.826;2024-01-15T04:12:03;11.30;;;8.20;;
26435;SDS011;15351;52.408;16.826;2024-01-15T04:14:30;11.20;;;8.90;;
26435;SDS011;15351;52.408;16.826;2024-01-15T04:16:57;11.30;;;9.10;;
26435;SDS011;15351;52.408;16.826;2024-01-15T04:19:23;14.10;;;9.50;;
26435;SDS011;15351;52.408;16.826;2024-01-15T04:21:49;16.10;;;9.90;;
26435;SDS011;15351;52.408;16.826;2024-01-15T04:24:15;12.70;;;8.60;;
26435;SDS011;15351;52.408;16.826;2024-01-15T04:26:43;10.20;;;7.90;;
26435;SDS011;15351;52.408;16.826;2024-01-15T04:29:11;9.80;;;7.90;;
26435;SDS011;15351;52.408;16.826;2024-01-15T04:31:37;9.60;;;7.90;;
26435;SDS011;15351;52.408;16.826;2024-01-15T04:34:05;16.00;;;9.60;;
26435;SDS011;15351;52.408;16.826;2024-01-15T04:36:31;12.00;;;7.60;;
26435;SDS011;15351;52.408;16.826;2024-01-15T04:38:58;11.20;;;7.10;;
26435;SDS011;15351;52.408;16.826;2024-01-15T04:41:25;10.30;;;7.00;;
26435;SDS011;15351;52.408;16.826;2024-01-15T04:43:51;8.50;;;6.40;;
26435;SDS011;15351;52.408;16.826;2024-01-15T04:46:18;8.80;;;6.70;;
26435;SDS011;15351;52.408;16.826;2024-01-15T04:48:44;11.50;;;7.20;;
26435;SDS011;15351;52.408;16.826;2024-01-15T04:51:10;12.40;;;6.90;;
26435;SDS011;15351;52.408;16.826;2024-01-15T04:53:38;9.50;;;6.20;;
26435;SDS011;15351;52.408;16.826;2024-01-15T04:56:05;8.90;;;6.20;;
26435;SDS011;15351;52.408;16.826;2024-01-15T04:58:31;8.00;;;5.80;;
26435;SDS011;15351;52.408;16.826;2024-01-15T05:00:58;8.30;;;6.20;;
26435;SDS011;15351;52.408;16.826;2024-01-15T05:03:25;9.70;;;6.70;;
26435;SDS011;15351;52.408;16.826;2024-01-15T05:05:51;9.50;;;6.50;;
26435;SDS011;15351;52.408;16.826;2024-01-15T05:08:17;9.70;;;6.00;;
26435;SDS011;15351;52.408;16.826;2024-01-15T05:10:44;10.20;;;6.50;;
26435;SDS011;15351;52.408;16.826;2024-01-15T05:13:11;8.70;;;6.30;;
26435;SDS011;15351;52.408;16.826;2024-01-15T05:15:37;8.50;;;6.60;;
26435;SDS011;15351;52.408;16.826;2024-01-15T05:18:03;7.80;;;6.30;;
26435;SDS011;15351;52.408;16.826;2024-01-15T05:20:31;10.90;;;7.20;;
26435;SDS011;15351;52.408;16.826;2024-01-15T05:22:57;8.70;;;6.00;;
26435;SDS011;15351;52.408;16.826;2024-01-15T05:25:23;8.40;;;5.90;;
26435;SDS011;15351;52.408;16.826;2024-01-15T05:27:49;7.40;;;5.30;;
26435;SDS011;15351;52.408;16.826;2024-01-15T05:30:15;7.80;;;5.60;;
26435;SDS011;15351;52.408;16.826;2024-01-15T05:32:42;6.80;;;5.30;;
26435;SDS011;15351;52.408;16.826;2024-01-15T05:35:08;9.20;;;5.70;;
26435;SDS011;15351;52.408;16.826;2024-01-15T05:37:35;8.90;;;5.50;;
26435;SDS011;15351;52.408;16.826;2024-01-15T05:40:01;12.30;;;6.60;;
26435;SDS011;15351;52.408;16.826;2024-01-15T05:42:28;7.20;;;5.30;;
26435;SDS011;15351;52.408;16.826;2024-01-15T05:44:56;7.20;;;5.70;;
26435;SDS011;15351;52.408;16.826;2024-01-15T05:47:23;7.20;;;5.60;;
26435;SDS011;15351;52.408;16.826;2024-01-15T05:49:50;7.80;;;5.60;;
26435;SDS011;15351;52.408;16.826;2024-01-15T05:52:16;9.10;;;5.80;;
26435;SDS011;15351;52.408;16.826;2024-01-15T05:54:43;9.80;;;6.00;;
26435;SDS011;15351;52.408;16.826;2024-01-15T05:57:09;10.00;;;6.10;;
26435;SDS011;15351;52.408;16.826;2024-01-15T05:59:36;9.10;;;6.10;;
26435;SDS011;15351;52.408;16.826;2024-01-15T06:02:03;9.40;;;6.50;;
26435;SDS011;15351;52.408;16.826;2024-01-15T06:04:29;12.30;;;7.10;;
26435;SDS011;15351;52.408;16.826;2024-01-15T06:06:56;12.30;;;7.00;;
26435;SDS011;15351;52.408;16.826;2024-01-15T06:09:23;13.30;;;7.10;;
26435;SDS011;15351;52.408;16.826;2024-01-15T06:11:50;12.10;;;6.60;;
26435;SDS011;15351;52.408;16.826;2024-01-15T06:14:16;9.00;;;6.80;;
26435;SDS011;15351;52.408;16.826;2024-01-15T06:16:42;10.10;;;6.90;;
26435;SDS011;15351;52.408;16.826;2024-01-15T06:19:08;16.90;;;8.30;;
26435;SDS011;15351;52.408;16.826;2024-01-15T06:21:35;11.50;;;7.00;;
26435;SDS011;15351;52.408;16.826;2024-01-15T06:24:01;11.20;;;6.60;;
26435;SDS011;15351;52.408;16.826;2024-01-15T06:26:28;12.80;;;7.00;;
26435;SDS011;15351;52.408;16.826;2024-01-15T06:28:55;10.00;;;6.60;;
26435;SDS011;15351;52.408;16.826;2024-01-15T06:31:21;10.90;;;6.90;;
26435;SDS011;15351;52.408;16.826;2024-01-15T06:33:47;17.10;;;8.20;;
26435;SDS011;15351;52.408;16.826;2024-01-15T06:36:15;14.20;;;7.10;;
26435;SDS011;15351;52.408;16.826;2024-01-15T06:38:45;11.00;;;6.50;;
26435;SDS011;15351;52.408;16.826;2024-01-15T06:41:11;9.90;;;6.80;;
26435;SDS011;15351;52.408;16.826;2024-01-15T06:43:37;11.40;;;7.50;;
26435;SDS011;15351;52.408;16.826;2024-01-15T06:46:04;12.20;;;7.60;;
26435;SDS011;15351;52.408;16.826;2024-01-15T06:48:30;11.00;;;6.90;;
26435;SDS011;15351;52.408;16.826;2024-01-15T06:50:57;15.80;;;8.70;;
26435;SDS011;15351;52.408;16.826;2024-01-15T06:53:23;11.70;;;7.30;;
26435;SDS011;15351;52.408;16.826;2024-01-15T06:55:49;10.90;;;7.40;;
26435;SDS011;15351;52.408;16.826;2024-01-15T06:58:17;11.40;;;7.50;;
26435;SDS011;15351;52.408;16.826;2024-01-15T07:00:43;11.10;;;8.20;;
26435;SDS011;15351;52.408;16.826;2024-01-15T07:03:12;12.40;;;7.90;;
26435;SDS011;15351;52.408;16.826;2024-01-15T07:05:39;11.60;;;7.70;;
26435;SDS011;15351;52.408;16.826;2024-01-15T07:08:05;11.60;;;7.40;;
26435;SDS011;15351;52.408;16.826;2024-01-15T07:10:32;14.00;;;7.30;;
26435;SDS011;15351;52.408;16.826;2024-01-15T07:12:58;11.20;;;7.90;;
26435;SDS011;15351;52.408;16.826;2024-01-15T07:15:25;13.70;;;8.50;;
26435;SDS011;15351;52.408;16.826;2024-01-15T07:17:53;12.20;;;7.80;;
26435;SDS011;15351;52.408;16.826;2024-01-15T07:20:19;13.10;;;7.60;;
26435;SDS011;15351;52.408;16.826;2024-01-15T07:22:45;13.30;;;7.60;;
26435;SDS011;15351;52.408;16.826;2024-01-15T07:25:11;14.60;;;8.10;;
26435;SDS011;15351;52.408;16.826;2024-01-15T07:27:39;14.40;;;9.10;;
26435;SDS011;15351;52.408;16.826;2024-01-15T07:30:08;12.80;;;9.30;;
26435;SDS011;15351;52.408;16.826;2024-01-15T07:32:36;15.30;;;9.30;;
26435;SDS011;15351;52.408;16.826;2024-01-15T07:35:03;16.80;;;9.30;;
26435;SDS011;15351;52.408;16.826;2024-01-15T07:37:30;14.20;;;8.20;;
26435;SDS011;15351;52.408;16.826;2024-01-15T07:39:56;9.80;;;6.90;;
26435;SDS011;15351;52.408;16.826;2024-01-15T07:42:22;10.90;;;7.10;;
26435;SDS011;15351;52.408;16.826;2024-01-15T07:44:50;9.80;;;7.20;;
26435;SDS011;15351;52.408;16.826;2024-01-15T07:47:17;13.60;;;7.80;;
26435;SDS011;15351;52.408;16.826;2024-01-15T07:49:44;13.20;;;7.40;;
26435;SDS011;15351;52.408;16.826;2024-01-15T07:52:11;12.80;;;7.50;;
26435;SDS011;15351;52.408;16.826;2024-01-15T07:54:39;11.60;;;7.40;;
26435;SDS011;15351;52.408;16.826;2024-01-15T07:57:05;11.80;;;8.30;;
26435;SDS011;15351;52.408;16.826;2024-01-15T07:59:32;16.30;;;8.70;;
26435;SDS011;15351;52.408;16.826;2024-01-15T08:01:58;14.60;;;8.00;;
26435;SDS011;15351;52.408;16.826;2024-01-15T08:04:26;13.90;;;7.70;;
26435;SDS011;15351;52.408;16.826;2024-01-15T08:06:53;13.80;;;7.30;;
26435;SDS011;15351;52.408;16.826;2024-01-15T08:09:20;13.20;;;7.80;;
26435;SDS011;15351;52.408;16.826;2024-01-15T08:11:47;13.90;;;8.70;;
26435;SDS011;15351;52.408;16.826;2024-01-15T08:14:15;15.20;;;8.40;;
26435;SDS011;15351;52.408;16.826;2024-01-15T08:16:43;16.20;;;8.00;;
26435;SDS011;15351;52.408;16.826;2024-01-15T08:22:02;10.80;;;7.00;;
26435;SDS011;15351;52.408;16.826;2024-01-15T08:24:29;10.50;;;7.30;;
26435;SDS011;15351;52.408;16.826;2024-01-15T08:26:55;12.60;;;7.60;;
26435;SDS011;15351;52.408;16.826;2024-01-15T08:29:22;11.60;;;7.40;;
26435;SDS011;15351;52.408;16.826;2024-01-15T08:31:50;12.20;;;7.20;;
26435;SDS011;15351;52.408;16.826;2024-01-15T08:34:16;13.00;;;6.90;;
26435;SDS011;15351;52.408;16.826;2024-01-15T08:36:42;12.30;;;7.10;;
26435;SDS011;15351;52.408;16.826;2024-01-15T08:39:08;11.30;;;7.10;;
26435;SDS011;15351;52.408;16.826;2024-01-15T08:41:35;13.10;;;7.30;;
26435;SDS011;15351;52.408;16.826;2024-01-15T08:44:02;13.70;;;7.10;;
26435;SDS011;15351;52.408;16.826;2024-01-15T08:46:29;12.60;;;7.10;;
26435;SDS011;15351;52.408;16.826;2024-01-15T08:48:55;10.90;;;6.60;;
26435;SDS011;15351;52.408;16.826;2024-01-15T08:51:23;11.20;;;6.80;;
26435;SDS011;15351;52.408;16.826;2024-01-15T08:53:49;10.60;;;6.60;;
26435;SDS011;15351;52.408;16.826;2024-01-15T08:56:15;11.20;;;7.30;;
26435;SDS011;15351;52.408;16.826;2024-01-15T08:58:41;18.80;;;7.70;;
26435;SDS011;15351;52.408;16.826;2024-01-15T09:01:07;12.80;;;6.90;;
26435;SDS011;15351;52.408;16.826;2024-01-15T09:03:34;10.70;;;6.50;;
26435;SDS011;15351;52.408;16.826;2024-01-15T09:06:00;12.00;;;7.30;;
26435;SDS011;15351;52.408;16.826;2024-01-15T09:08:27;10.80;;;6.80;;
26435;SDS011;15351;52.408;16.826;2024-01-15T09:10:54;12.70;;;7.30;;
26435;SDS011;15351;52.408;16.826;2024-01-15T09:13:21;12.30;;;6.70;;
26435;SDS011;15351;52.408;16.826;2024-01-15T09:15:47;11.00;;;6.20;;
26435;SDS011;15351;52.408;16.826;2024-01-15T09:18:15;13.40;;;6.60;;
26435;SDS011;15351;52.408;16.826;2024-01-15T09:20:41;10.70;;;6.30;;
26435;SDS011;15351;52.408;16.826;2024-01-15T09:23:08;9.70;;;6.30;;
26435;SDS011;15351;52.408;16.826;2024-01-15T09:25:34;13.70;;;7.60;;
26435;SDS011;15351;52.408;16.826;2024-01-15T09:28:01;12.20;;;6.30;;
26435;SDS011;15351;52.408;16.826;2024-01-15T09:30:28;13.80;;;6.60;;
26435;SDS011;15351;52.408;16.826;2024-01-15T09:32:54;9.40;;;6.00;;
26435;SDS011;15351;52.408;16.826;2024-01-15T09:35:20;12.20;;;6.80;;
26435;SDS011;15351;52.408;16.826;2024-01-15T09:37:48;11.20;;;7.50;;
26435;SDS011;15351;52.408;16.826;2024-01-15T09:40:14;11.00;;;7.30;;
26435;SDS011;15351;52.408;16.826;2024-01-15T09:42:42;13.40;;;7.90;;
26435;SDS011;15351;52.408;16.826;2024-01-15T09:45:09;12.70;;;7.00;;
26435;SDS011;15351;52.408;16.826;2024-01-15T09:47:36;13.90;;;7.50;;
26435;SDS011;15351;52.408;16.826;2024-01-15T09:50:03;25.00;;;7.90;;
26435;SDS011;15351;52.408;16.826;2024-01-15T09:52:31;10.30;;;5.80;;
26435;SDS011;15351;52.408;16.826;2024-01-15T09:54:59;10.80;;;5.70;;
26435;SDS011;15351;52.408;16.826;2024-01-15T09:57:29;14.50;;;6.20;;
26435;SDS011;15351;52.408;16.826;2024-01-15T09:59:55;15.80;;;7.40;;
26435;SDS011;15351;52.408;16.826;2024-01-15T10:02:25;10.60;;;5.00;;
26435;SDS011;15351;52.408;16.826;2024-01-15T10:04:52;9.30;;;5.30;;
26435;SDS011;15351;52.408;16.826;2024-01-15T10:07:21;12.40;;;5.90;;
26435;SDS011;15351;52.408;16.826;2024-01-15T10:09:49;12.20;;;8.60;;
26435;SDS011;15351;52.408;16.826;2024-01-15T10:12:15;23.70;;;10.40;;
26435;SDS011;15351;52.408;16.826;2024-01-15T10:14:43;16.70;;;7.60;;
26435;SDS011;15351;52.408;16.826;2024-01-15T10:17:12;12.30;;;6.30;;
26435;SDS011;15351;52.408;16.826;2024-01-15T10:19:40;10.00;;;5.90;;
26435;SDS011;15351;52.408;16.826;2024-01-15T10:22:08;8.70;;;5.30;;
26435;SDS011;15351;52.408;16.826;2024-01-15T10:24:38;13.80;;;6.60;;
26435;SDS011;15351;52.408;16.826;2024-01-15T10:27:09;12.90;;;6.60;;
26435;SDS011;15351;52.408;16.826;2024-01-15T10:29:36;10.90;;;5.70;;
26435;SDS011;15351;52.408;16.826;2024-01-15T10:32:06;9.80;;;6.00;;
26435;SDS011;15351;52.408;16.826;2024-01-15T10:34:38;10.00;;;5.80;;
26435;SDS011;15351;52.408;16.826;2024-01-15T10:37:09;12.00;;;6.10;;
26435;SDS011;15351;52.408;16.826;2024-01-15T10:39:36;24.40;;;13.50;;
26435;SDS011;15351;52.408;16.826;2024-01-15T10:42:04;19.40;;;9.80;;
26435;SDS011;15351;52.408;16.826;2024-01-15T10:44:35;11.30;;;5.70;;
26435;SDS011;15351;52.408;16.826;2024-01-15T10:47:01;9.90;;;5.50;;
26435;SDS011;15351;52.408;16.826;2024-01-15T10:49:27;8.20;;;5.00;;
26435;SDS011;15351;52.408;16.826;2024-01-15T10:51:55;10.80;;;5.30;;
26435;SDS011;15351;52.408;16.826;2024-01-15T10:54:23;12.50;;;5.50;;
26435;SDS011;15351;52.408;16.826;2024-01-15T10:56:50;13.10;;;5.10;;
26435;SDS011;15351;52.408;16.826;2024-01-15T10:59:22;9.50;;;4.30;;
26435;SDS011;15351;52.408;16.826;2024-01-15T11:01:50;9.90;;;4.70;;
26435;SDS011;15351;52.408;16.826;2024-01-15T11:04:21;12.20;;;5.00;;
26435;SDS011;15351;52.408;16.826;2024-01-15T11:06:52;10.90;;;5.40;;
26435;SDS011;15351;52.408;16.826;2024-01-15T11:09:19;10.80;;;5.30;;
26435;SDS011;15351;52.408;16.826;2024-01-15T11:11:46;12.90;;;6.00;;
26435;SDS011;15351;52.408;16.826;2024-01-15T11:17:06;11.20;;;5.00;;
26435;SDS011;15351;52.408;16.826;2024-01-15T11:19:36;11.70;;;6.10;;
26435;SDS011;15351;52.408;16.826;2024-01-15T11:22:08;14.70;;;6.50;;
26435;SDS011;15351;52.408;16.826;2024-01-15T11:27:09;11.30;;;5.20;;
26435;SDS011;15351;52.408;16.826;2024-01-15T11:29:35;9.30;;;4.70;;
26435;SDS011;15351;52.408;16.826;2024-01-15T11:32:03;9.70;;;5.00;;
26435;SDS011;15351;52.408;16.826;2024-01-15T11:35:04;11.50;;;5.40;;
26435;SDS011;15351;52.408;16.826;2024-01-15T11:37:29;12.30;;;5.30;;
26435;SDS011;15351;52.408;16.826;2024-01-15T11:40:17;11.30;;;4.90;;
26435;SDS011;15351;52.408;16.826;2024-01-15T11:42:45;11.30;;;5.60;;
26435;SDS011;15351;52.408;16.826;2024-01-15T11:45:21;10.10;;;5.10;;
26435;SDS011;15351;52.408;16.826;2024-01-15T11:47:57;11.90;;;5.10;;
26435;SDS011;15351;52.408;16.826;2024-01-15T11:50:32;14.40;;;6.00;;
26435;SDS011;15351;52.408;16.826;2024-01-15T11:53:00;16.00;;;5.60;;
26435;SDS011;15351;52.408;16.826;2024-01-15T11:55:35;10.20;;;5.10;;
26435;SDS011;15351;52.408;16.826;2024-01-15T11:58:07;8.40;;;4.30;;
26435;SDS011;15351;52.408;16.826;2024-01-15T12:00:43;9.50;;;5.10;;
26435;SDS011;15351;52.408;16.826;2024-01-15T12:03:12;10.20;;;4.80;;
26435;SDS011;15351;52.408;16.826;2024-01-15T12:05:38;10.70;;;4.70;;
26435;SDS011;15351;52.408;16.826;2024-01-15T12:08:05;9.60;;;4.60;;
26435;SDS011;15351;52.408;16.826;2024-01-15T12:10:40;7.90;;;4.60;;
26435;SDS011;15351;52.408;16.826;2024-01-15T12:13:13;8.70;;;4.50;;
26435;SDS011;15351;52.408;16.826;2024-01-15T12:15:41;14.40;;;6.60;;
26435;SDS011;15351;52.408;16.826;2024-01-15T12:18:09;10.00;;;4.80;;
26435;SDS011;15351;52.408;16.826;2024-01-15T12:20:39;11.40;;;5.70;;
26435;SDS011;15351;52.408;16.826;2024-01-15T12:23:06;9.20;;;4.40;;
26435;SDS011;15351;52.408;16.826;2024-01-15T12:25:33;8.40;;;4.50;;
26435;SDS011;15351;52.408;16.826;2024-01-15T12:28:00;9.50;;;4.70;;
26435;SDS011;15351;52.408;16.826;2024-01-15T12:30:27;9.40;;;5.00;;
26435;SDS011;15351;52.408;16.826;2024-01-15T12:32:55;9.00;;;4.00;;
26435;SDS011;15351;52.408;16.826;2024-01-15T12:35:23;8.60;;;4.10;;
26435;SDS011;15351;52.408;16.826;2024-01-15T12:37:54;10.60;;;4.30;;
26435;SDS011;15351;52.408;16.826;2024-01-15T12:40:23;6.80;;;3.80;;
26435;SDS011;15351;52.408;16.826;2024-01-15T12:42:50;9.80;;;4.50;;
26435;SDS011;15351;52.408;16.826;2024-01-15T12:45:16;9.50;;;3.90;;
26435;SDS011;15351;52.408;16.826;2024-01-15T12:47:44;9.60;;;3.50;;
26435;SDS011;15351;52.408;16.826;2024-01-15T12:50:12;9.90;;;3.50;;
26435;SDS011;15351;52.408;16.826;2024-01-15T12:52:40;7.90;;;3.50;;
26435;SDS011;15351;52.408;16.826;2024-01-15T12:55:08;10.40;;;3.90;;
26435;SDS011;15351;52.408;16.826;2024-01-15T12:57:36;7.70;;;3.60;;
26435;SDS011;15351;52.408;16.826;2024-01-15T13:00:03;14.20;;;4.30;;
26435;SDS011;15351;52.408;16.826;2024-01-15T13:02:38;10.40;;;4.00;;
26435;SDS011;15351;52.408;16.826;2024-01-15T13:05:11;8.80;;;3.70;;
26435;SDS011;15351;52.408;16.826;2024-01-15T13:07:38;9.80;;;3.90;;
26435;SDS011;15351;52.408;16.826;2024-01-15T13:10:05;6.20;;;3.70;;
26435;SDS011;15351;52.408;16.826;2024-01-15T13:12:34;10.50;;;3.80;;
26435;SDS011;15351;52.408;16.826;2024-01-15T13:15:04;12.10;;;4.10;;
26435;SDS011;15351;52.408;16.826;2024-01-15T13:17:38;8.20;;;3.30;;
26435;SDS011;15351;52.408;16.826;2024-01-15T13:20:08;6.90;;;3.10;;
26435;SDS011;15351;52.408;16.826;2024-01-15T13:22:35;6.70;;;3.40;;
26435;SDS011;15351;52.408;16.826;2024-01-15T13:25:01;7.00;;;3.20;;
26435;SDS011;15351;52.408;16.826;2024-01-15T13:27:29;8.60;;;3.70;;
26435;SDS011;15351;52.408;16.826;2024-01-15T13:29:56;8.60;;;3.80;;
26435;SDS011;15351;52.408;16.826;2024-01-15T13:32:24;7.20;;;3.60;;
26435;SDS011;15351;52.408;16.826;2024-01-15T13:34:55;7.90;;;4.00;;
26435;SDS011;15351;52.408;16.826;2024-01-15T13:37:22;8.30;;;4.40;;
26435;SDS011;15351;52.408;16.826;2024-01-15T13:39:52;9.20;;;4.50;;
26435;SDS011;15351;52.408;16.826;2024-01-15T13:42:20;9.90;;;4.60;;
26435;SDS011;15351;52.408;16.826;2024-01-15T13:44:50;14.50;;;5.50;;
26435;SDS011;15351;52.408;16.826;2024-01-15T13:47:18;9.20;;;4.20;;
26435;SDS011;15351;52.408;16.826;2024-01-15T13:49:45;7.20;;;4.20;;
26435;SDS011;15351;52.408;16.826;2024-01-15T13:52:11;8.00;;;4.00;;
26435;SDS011;15351;52.408;16.826;2024-01-15T13:54:38;9.20;;;3.80;;
26435;SDS011;15351;52.408;16.826;2024-01-15T13:57:06;15.00;;;5.90;;
26435;SDS011;15351;52.408;16.826;2024-01-15T13:59:33;11.20;;;5.00;;
26435;SDS011;15351;52.408;16.826;2024-01-15T14:01:59;9.80;;;3.90;;
26435;SDS011;15351;52.408;16.826;2024-01-15T14:04:26;8.20;;;4.10;;
26435;SDS011;15351;52.408;16.826;2024-01-15T14:06:53;10.80;;;5.10;;
26435;SDS011;15351;52.408;16.826;2024-01-15T14:09:19;11.20;;;4.90;;
26435;SDS011;15351;52.408;16.826;2024-01-15T14:11:48;14.80;;;5.50;;
26435;SDS011;15351;52.408;16.826;2024-01-15T14:14:15;11.00;;;4.50;;
26435;SDS011;15351;52.408;16.826;2024-01-15T14:16:42;8.90;;;4.10;;
26435;SDS011;15351;52.408;16.826;2024-01-15T14:19:09;8.60;;;4.10;;
26435;SDS011;15351;52.408;16.826;2024-01-15T14:21:36;8.10;;;4.00;;
26435;SDS011;15351;52.408;16.826;2024-01-15T14:24:03;8.70;;;4.30;;
26435;SDS011;15351;52.408;16.826;2024-01-15T14:26:29;8.50;;;4.30;;
26435;SDS011;15351;52.408;16.826;2024-01-15T14:28:58;9.40;;;4.00;;
26435;SDS011;15351;52.408;16.826;2024-01-15T14:31:24;10.60;;;4.10;;